sensor_id;sensor_type;location;lat;lon;timestamp;pressure;altitude;pressure_sealevel;temperature;humidity
5755;BME280;2902;42.130;24.732;2022-12-29T00:01:52;100688.41;;;7.62;87.03
5755;BME280;2902;42.130;24.732;2022-12-29T00:04:19;100695.97;;;7.57;87.35
5755;BME280;2902;42.130;24.732;2022-12-29T00:06:45;100696.31;;;7.44;87.45
5755;BME280;2902;42.130;24.732;2022-12-29T00:09:13;100703.31;;;7.36;87.26
5755;BME280;2902;42.130;24.732;2022-12-29T00:11:42;100689.00;;;7.29;88.41
5755;BME280;2902;42.130;24.732;2022-12-29T00:14:09;100704.19;;;7.27;89.08
5755;BME280;2902;42.130;24.732;2022-12-29T00:16:53;100697.91;;;7.28;88.92
5755;BME280;2902;42.130;24.732;2022-12-29T00:19:20;100704.19;;;7.27;89.49
5755;BME280;2902;42.130;24.732;2022-12-29T00:22:05;100718.38;;;7.26;89.56
5755;BME280;2902;42.130;24.732;2022-12-29T00:24:49;100717.41;;;7.27;89.23
5755;BME280;2902;42.130;24.732;2022-12-29T00:27:35;100718.78;;;7.31;89.00
5755;BME280;2902;42.130;24.732;2022-12-29T00:30:21;100721.28;;;7.32;88.58
5755;BME280;2902;42.130;24.732;2022-12-29T00:33:10;100723.75;;;7.34;87.98
5755;BME280;2902;42.130;24.732;2022-12-29T00:35:56;100717.78;;;7.32;88.10
5755;BME280;2902;42.130;24.732;2022-12-29T00:38:24;100716.41;;;7.28;88.87
5755;BME280;2902;42.130;24.732;2022-12-29T00:41:08;100721.69;;;7.28;88.46
5755;BME280;2902;42.130;24.732;2022-12-29T00:43:53;100741.44;;;7.33;88.76
5755;BME280;2902;42.130;24.732;2022-12-29T00:46:32;100744.75;;;7.35;89.79
5755;BME280;2902;42.130;24.732;2022-12-29T00:48:58;100736.28;;;7.32;88.50
5755;BME280;2902;42.130;24.732;2022-12-29T00:51:42;100736.28;;;7.32;90.07
5755;BME280;2902;42.130;24.732;2022-12-29T00:54:09;100746.25;;;7.38;90.22
5755;BME280;2902;42.130;24.732;2022-12-29T00:56:36;100740.56;;;7.42;89.40
5755;BME280;2902;42.130;24.732;2022-12-29T00:59:05;100751.53;;;7.47;89.19
5755;BME280;2902;42.130;24.732;2022-12-29T01:01:33;100746.69;;;7.43;88.84
5755;BME280;2902;42.130;24.732;2022-12-29T01:04:00;100740.31;;;7.36;88.61
5755;BME280;2902;42.130;24.732;2022-12-29T01:06:27;100739.88;;;7.40;89.15
5755;BME280;2902;42.130;24.732;2022-12-29T01:08:53;100739.72;;;7.42;88.88
5755;BME280;2902;42.130;24.732;2022-12-29T01:11:34;100741.25;;;7.44;88.21
5755;BME280;2902;42.130;24.732;2022-12-29T01:14:00;100744.19;;;7.41;87.46
5755;BME280;2902;42.130;24.732;2022-12-29T01:16:29;100731.09;;;7.40;87.96
5755;BME280;2902;42.130;24.732;2022-12-29T01:18:55;100739.44;;;7.45;87.24
5755;BME280;2902;42.130;24.732;2022-12-29T01:21:22;100733.00;;;7.47;86.93
5755;BME280;2902;42.130;24.732;2022-12-29T01:23:49;100738.06;;;7.41;86.43
5755;BME280;2902;42.130;24.732;2022-12-29T01:26:16;100743.34;;;7.41;87.41
5755;BME280;2902;42.130;24.732;2022-12-29T01:28:44;100736.94;;;7.43;87.49
5755;BME280;2902;42.130;24.732;2022-12-29T01:31:12;100724.69;;;7.42;86.94
5755;BME280;2902;42.130;24.732;2022-12-29T01:33:41;100721.63;;;7.47;87.13
5755;BME280;2902;42.130;24.732;2022-12-29T01:36:11;100726.91;;;7.47;86.38
5755;BME280;2902;42.130;24.732;2022-12-29T01:38:39;100722.00;;;7.52;87.12
5755;BME280;2902;42.130;24.732;2022-12-29T01:41:07;100722.44;;;7.47;86.05
5755;BME280;2902;42.130;24.732;2022-12-29T01:43:42;100712.31;;;7.43;86.99
5755;BME280;2902;42.130;24.732;2022-12-29T01:46:16;100715.53;;;7.37;87.00
5755;BME280;2902;42.130;24.732;2022-12-29T01:48:48;100707.59;;;7.37;86.69
5755;BME280;2902;42.130;24.732;2022-12-29T01:51:16;100708.31;;;7.39;87.27
5755;BME280;2902;42.130;24.732;2022-12-29T01:53:44;100698.13;;;7.44;86.83
5755;BME280;2902;42.130;24.732;2022-12-29T01:56:14;100688.41;;;7.44;86.99
5755;BME280;2902;42.130;24.732;2022-12-29T01:58:46;100691.28;;;7.51;87.36
5755;BME280;2902;42.130;24.732;2022-12-29T02:01:15;100687.78;;;7.50;86.78
5755;BME280;2902;42.130;24.732;2022-12-29T02:03:46;100688.03;;;7.57;87.09
5755;BME280;2902;42.130;24.732;2022-12-29T02:06:17;100684.25;;;7.59;86.64
5755;BME280;2902;42.130;24.732;2022-12-29T02:08:46;100651.63;;;7.51;86.48
5755;BME280;2902;42.130;24.732;2022-12-29T02:11:13;100673.97;;;7.56;87.09
5755;BME280;2902;42.130;24.732;2022-12-29T02:13:42;100672.53;;;7.62;87.09
5755;BME280;2902;42.130;24.732;2022-12-29T02:16:16;100670.97;;;7.69;87.56
5755;BME280;2902;42.130;24.732;2022-12-29T02:18:51;100664.13;;;7.76;86.73
5755;BME280;2902;42.130;24.732;2022-12-29T02:21:48;100661.72;;;7.82;86.32
5755;BME280;2902;42.130;24.732;2022-12-29T02:27:47;100654.59;;;7.83;86.91
5755;BME280;2902;42.130;24.732;2022-12-29T02:30:46;100649.28;;;7.83;86.24
5755;BME280;2902;42.130;24.732;2022-12-29T02:33:23;100644.69;;;7.85;85.89
5755;BME280;2902;42.130;24.732;2022-12-29T02:35:56;100642.44;;;7.90;86.04
5755;BME280;2902;42.130;24.732;2022-12-29T02:38:34;100648.41;;;7.92;86.50
5755;BME280;2902;42.130;24.732;2022-12-29T02:41:15;100640.91;;;7.87;85.80
5755;BME280;2902;42.130;24.732;2022-12-29T02:43:48;100635.47;;;7.89;85.84
5755;BME280;2902;42.130;24.732;2022-12-29T02:46:22;100636.16;;;7.91;85.98
5755;BME280;2902;42.130;24.732;2022-12-29T02:48:59;100639.78;;;7.90;86.07
5755;BME280;2902;42.130;24.732;2022-12-29T02:51:32;100638.19;;;7.79;86.25
5755;BME280;2902;42.130;24.732;2022-12-29T02:54:00;100643.69;;;7.68;86.33
5755;BME280;2902;42.130;24.732;2022-12-29T02:56:45;100629.44;;;7.61;86.70
5755;BME280;2902;42.130;24.732;2022-12-29T02:59:12;100638.03;;;7.63;87.21
5755;BME280;2902;42.130;24.732;2022-12-29T03:01:51;100635.00;;;7.58;86.36
5755;BME280;2902;42.130;24.732;2022-12-29T03:04:51;100636.13;;;7.56;86.40
5755;BME280;2902;42.130;24.732;2022-12-29T03:07:23;100628.50;;;7.53;86.33
5755;BME280;2902;42.130;24.732;2022-12-29T03:09:59;100630.38;;;7.43;86.78
5755;BME280;2902;42.130;24.732;2022-12-29T03:12:30;100634.88;;;7.33;87.03
5755;BME280;2902;42.130;24.732;2022-12-29T03:15:18;100634.41;;;7.20;87.42
5755;BME280;2902;42.130;24.732;2022-12-29T03:18:08;100633.44;;;7.11;88.50
5755;BME280;2902;42.130;24.732;2022-12-29T03:20:39;100624.31;;;7.06;88.07
5755;BME280;2902;42.130;24.732;2022-12-29T03:23:08;100635.94;;;7.13;87.49
5755;BME280;2902;42.130;24.732;2022-12-29T03:25:38;100628.47;;;7.08;86.50
5755;BME280;2902;42.130;24.732;2022-12-29T03:28:08;100630.34;;;6.89;86.60
5755;BME280;2902;42.130;24.732;2022-12-29T03:30:37;100631.81;;;6.74;87.76
5755;BME280;2902;42.130;24.732;2022-12-29T03:33:10;100629.16;;;6.74;88.58
5755;BME280;2902;42.130;24.732;2022-12-29T03:35:40;100627.50;;;6.73;88.14
5755;BME280;2902;42.130;24.732;2022-12-29T03:38:11;100625.81;;;6.72;88.42
5755;BME280;2902;42.130;24.732;2022-12-29T03:40:42;100626.81;;;6.71;87.79
5755;BME280;2902;42.130;24.732;2022-12-29T03:43:11;100626.94;;;6.69;87.94
5755;BME280;2902;42.130;24.732;2022-12-29T03:45:39;100621.00;;;6.67;88.14
5755;BME280;2902;42.130;24.732;2022-12-29T03:48:07;100616.13;;;6.63;88.30
5755;BME280;2902;42.130;24.732;2022-12-29T03:50:33;100621.69;;;6.60;88.93
5755;BME280;2902;42.130;24.732;2022-12-29T03:53:00;100612.25;;;6.57;88.40
5755;BME280;2902;42.130;24.732;2022-12-29T03:55:27;100623.13;;;6.45;88.91
5755;BME280;2902;42.130;24.732;2022-12-29T03:57:53;100622.03;;;6.38;88.73
5755;BME280;2902;42.130;24.732;2022-12-29T04:00:20;100613.44;;;6.36;88.89
5755;BME280;2902;42.130;24.732;2022-12-29T04:02:47;100616.75;;;6.38;88.55
5755;BME280;2902;42.130;24.732;2022-12-29T04:05:15;100618.28;;;6.31;87.93
5755;BME280;2902;42.130;24.732;2022-12-29T04:07:42;100630.09;;;6.27;88.56
5755;BME280;2902;42.130;24.732;2022-12-29T04:10:08;100632.88;;;6.25;89.67
5755;BME280;2902;42.130;24.732;2022-12-29T04:12:35;100631.66;;;6.20;90.63
5755;BME280;2902;42.130;24.732;2022-12-29T04:15:02;100621.78;;;6.12;90.48
5755;BME280;2902;42.130;24.732;2022-12-29T04:17:29;100627.31;;;6.19;90.93
5755;BME280;2902;42.130;24.732;2022-12-29T04:19:56;100635.22;;;6.19;90.31
5755;BME280;2902;42.130;24.732;2022-12-29T04:22:44;100646.63;;;6.19;89.40
5755;BME280;2902;42.130;24.732;2022-12-29T04:25:11;100645.78;;;6.19;89.15
5755;BME280;2902;42.130;24.732;2022-12-29T04:27:37;100644.13;;;6.18;89.63
5755;BME280;2902;42.130;24.732;2022-12-29T04:30:05;100648.72;;;6.16;89.36
5755;BME280;2902;42.130;24.732;2022-12-29T04:32:32;100652.31;;;6.15;89.61
5755;BME280;2902;42.130;24.732;2022-12-29T04:34:58;100658.16;;;6.09;88.93
5755;BME280;2902;42.130;24.732;2022-12-29T04:37:25;100655.78;;;6.06;89.34
5755;BME280;2902;42.130;24.732;2022-12-29T04:39:53;100657.75;;;6.04;89.46
5755;BME280;2902;42.130;24.732;2022-12-29T04:42:20;100665.78;;;6.02;89.96
5755;BME280;2902;42.130;24.732;2022-12-29T04:44:46;100670.50;;;5.99;89.92
5755;BME280;2902;42.130;24.732;2022-12-29T04:47:13;100669.13;;;5.95;89.64
5755;BME280;2902;42.130;24.732;2022-12-29T04:49:40;100670.09;;;5.94;89.71
5755;BME280;2902;42.130;24.732;2022-12-29T04:52:06;100675.66;;;5.91;89.65
5755;BME280;2902;42.130;24.732;2022-12-29T04:54:33;100666.06;;;5.90;90.25
5755;BME280;2902;42.130;24.732;2022-12-29T04:57:01;100670.78;;;5.86;89.92
5755;BME280;2902;42.130;24.732;2022-12-29T04:59:28;100678.94;;;5.83;89.88
5755;BME280;2902;42.130;24.732;2022-12-29T05:01:55;100677.97;;;5.84;90.77
5755;BME280;2902;42.130;24.732;2022-12-29T05:04:21;100678.13;;;5.83;90.47
5755;BME280;2902;42.130;24.732;2022-12-29T05:06:49;100676.84;;;5.77;90.95
5755;BME280;2902;42.130;24.732;2022-12-29T05:09:16;100683.22;;;5.74;90.50
5755;BME280;2902;42.130;24.732;2022-12-29T05:11:42;100678.19;;;5.62;90.77
5755;BME280;2902;42.130;24.732;2022-12-29T05:14:10;100687.22;;;5.59;91.08
5755;BME280;2902;42.130;24.732;2022-12-29T05:16:37;100681.75;;;5.42;92.20
5755;BME280;2902;42.130;24.732;2022-12-29T05:19:04;100686.28;;;5.30;92.84
5755;BME280;2902;42.130;24.732;2022-12-29T05:21:30;100678.22;;;5.22;92.58
5755;BME280;2902;42.130;24.732;2022-12-29T05:23:57;100675.72;;;5.21;93.56
5755;BME280;2902;42.130;24.732;2022-12-29T05:26:24;100668.50;;;5.13;92.38
5755;BME280;2902;42.130;24.732;2022-12-29T05:28:50;100677.19;;;5.04;92.67
5755;BME280;2902;42.130;24.732;2022-12-29T05:31:18;100667.72;;;4.92;92.25
5755;BME280;2902;42.130;24.732;2022-12-29T05:33:45;100673.63;;;4.85;92.98
5755;BME280;2902;42.130;24.732;2022-12-29T05:36:12;100672.34;;;4.79;93.61
5755;BME280;2902;42.130;24.732;2022-12-29T05:38:39;100662.97;;;4.86;93.55
5755;BME280;2902;42.130;24.732;2022-12-29T05:41:05;100672.25;;;4.90;93.38
5755;BME280;2902;42.130;24.732;2022-12-29T05:43:32;100668.41;;;4.94;93.11
5755;BME280;2902;42.130;24.732;2022-12-29T05:45:59;100663.13;;;4.94;92.45
5755;BME280;2902;42.130;24.732;2022-12-29T05:48:27;100658.84;;;4.93;91.61
5755;BME280;2902;42.130;24.732;2022-12-29T05:50:53;100660.31;;;4.86;91.55
5755;BME280;2902;42.130;24.732;2022-12-29T05:53:20;100659.19;;;4.79;92.40
5755;BME280;2902;42.130;24.732;2022-12-29T05:55:47;100646.75;;;4.61;92.25
5755;BME280;2902;42.130;24.732;2022-12-29T05:58:14;100652.78;;;4.52;92.61
5755;BME280;2902;42.130;24.732;2022-12-29T06:00:41;100649.66;;;4.37;93.60
5755;BME280;2902;42.130;24.732;2022-12-29T06:03:08;100662.38;;;4.32;93.83
5755;BME280;2902;42.130;24.732;2022-12-29T06:05:36;100662.81;;;4.37;95.17
5755;BME280;2902;42.130;24.732;2022-12-29T06:08:03;100669.91;;;4.46;94.78
5755;BME280;2902;42.130;24.732;2022-12-29T06:10:30;100665.13;;;4.51;94.77
5755;BME280;2902;42.130;24.732;2022-12-29T06:12:56;100663.19;;;4.53;93.74
5755;BME280;2902;42.130;24.732;2022-12-29T06:15:23;100654.19;;;4.56;94.15
5755;BME280;2902;42.130;24.732;2022-12-29T06:17:50;100658.69;;;4.65;93.49
5755;BME280;2902;42.130;24.732;2022-12-29T06:20:17;100658.06;;;4.72;94.40
5755;BME280;2902;42.130;24.732;2022-12-29T06:22:45;100665.41;;;4.78;94.46
5755;BME280;2902;42.130;24.732;2022-12-29T06:25:11;100669.63;;;4.90;94.07
5755;BME280;2902;42.130;24.732;2022-12-29T06:27:38;100660.81;;;5.01;93.75
5755;BME280;2902;42.130;24.732;2022-12-29T06:30:06;100665.88;;;5.13;93.02
5755;BME280;2902;42.130;24.732;2022-12-29T06:32:33;100676.56;;;5.21;92.16
5755;BME280;2902;42.130;24.732;2022-12-29T06:34:59;100679.25;;;5.40;91.67
5755;BME280;2902;42.130;24.732;2022-12-29T06:37:26;100684.56;;;5.59;91.47
5755;BME280;2902;42.130;24.732;2022-12-29T06:39:54;100694.88;;;5.72;91.08
5755;BME280;2902;42.130;24.732;2022-12-29T06:42:21;100694.25;;;5.89;89.98
5755;BME280;2902;42.130;24.732;2022-12-29T06:44:48;100690.91;;;6.06;90.17
5755;BME280;2902;42.130;24.732;2022-12-29T06:47:15;100708.00;;;6.12;89.07
5755;BME280;2902;42.130;24.732;2022-12-29T06:49:41;100703.00;;;6.28;89.46
5755;BME280;2902;42.130;24.732;2022-12-29T06:52:08;100705.75;;;6.55;88.98
5755;BME280;2902;42.130;24.732;2022-12-29T06:54:35;100713.06;;;6.80;88.14
5755;BME280;2902;42.130;24.732;2022-12-29T06:57:03;100723.19;;;7.03;86.47
5755;BME280;2902;42.130;24.732;2022-12-29T06:59:30;100717.44;;;7.08;84.88
5755;BME280;2902;42.130;24.732;2022-12-29T07:01:56;100708.75;;;6.98;85.28
5755;BME280;2902;42.130;24.732;2022-12-29T07:04:23;100726.63;;;7.04;85.65
5755;BME280;2902;42.130;24.732;2022-12-29T07:06:50;100729.81;;;7.07;87.25
5755;BME280;2902;42.130;24.732;2022-12-29T07:09:17;100728.53;;;7.21;86.22
5755;BME280;2902;42.130;24.732;2022-12-29T07:11:43;100734.44;;;7.42;86.56
5755;BME280;2902;42.130;24.732;2022-12-29T07:14:12;100729.53;;;7.74;84.38
5755;BME280;2902;42.130;24.732;2022-12-29T07:16:38;100724.66;;;7.96;83.51
5755;BME280;2902;42.130;24.732;2022-12-29T07:19:05;100737.63;;;8.17;82.78
5755;BME280;2902;42.130;24.732;2022-12-29T07:21:32;100737.28;;;8.29;80.96
5755;BME280;2902;42.130;24.732;2022-12-29T07:23:58;100740.00;;;8.37;79.30
5755;BME280;2902;42.130;24.732;2022-12-29T07:26:25;100744.00;;;8.24;79.74
5755;BME280;2902;42.130;24.732;2022-12-29T07:28:52;100740.88;;;8.11;79.98
5755;BME280;2902;42.130;24.732;2022-12-29T07:31:21;100730.91;;;8.05;79.56
5755;BME280;2902;42.130;24.732;2022-12-29T07:33:49;100728.47;;;8.11;80.22
5755;BME280;2902;42.130;24.732;2022-12-29T07:36:16;100722.34;;;8.11;79.99
5755;BME280;2902;42.130;24.732;2022-12-29T07:38:43;100724.97;;;8.11;81.37
5755;BME280;2902;42.130;24.732;2022-12-29T07:41:10;100728.19;;;8.49;81.24
5755;BME280;2902;42.130;24.732;2022-12-29T07:43:36;100727.72;;;8.97;79.77
5755;BME280;2902;42.130;24.732;2022-12-29T07:46:03;100728.47;;;9.07;77.90
5755;BME280;2902;42.130;24.732;2022-12-29T07:48:31;100735.28;;;9.35;76.98
5755;BME280;2902;42.130;24.732;2022-12-29T07:50:58;100739.34;;;9.63;75.26
5755;BME280;2902;42.130;24.732;2022-12-29T07:53:25;100723.09;;;9.58;73.81
5755;BME280;2902;42.130;24.732;2022-12-29T07:55:52;100741.78;;;9.48;74.83
5755;BME280;2902;42.130;24.732;2022-12-29T07:58:18;100742.59;;;9.41;75.10
5755;BME280;2902;42.130;24.732;2022-12-29T08:00:45;100730.50;;;9.46;74.98
5755;BME280;2902;42.130;24.732;2022-12-29T08:03:12;100712.38;;;10.49;96.76
5755;BME280;2902;42.130;24.732;2022-12-29T08:05:40;100745.50;;;11.41;76.04
5755;BME280;2902;42.130;24.732;2022-12-29T08:08:07;100756.75;;;11.67;70.98
5755;BME280;2902;42.130;24.732;2022-12-29T08:10:33;100748.44;;;11.62;69.22
5755;BME280;2902;42.130;24.732;2022-12-29T08:13:00;100752.13;;;11.61;69.58
5755;BME280;2902;42.130;24.732;2022-12-29T08:15:27;100749.25;;;11.71;68.66
5755;BME280;2902;42.130;24.732;2022-12-29T08:17:53;100748.88;;;11.82;68.95
5755;BME280;2902;42.130;24.732;2022-12-29T08:20:20;100755.03;;;11.82;67.36
5755;BME280;2902;42.130;24.732;2022-12-29T08:22:48;100736.78;;;11.55;69.32
5755;BME280;2902;42.130;24.732;2022-12-29T08:25:15;100745.81;;;11.46;68.93
5755;BME280;2902;42.130;24.732;2022-12-29T08:27:42;100739.66;;;11.46;68.80
5755;BME280;2902;42.130;24.732;2022-12-29T08:30:09;100747.50;;;11.31;69.60
5755;BME280;2902;42.130;24.732;2022-12-29T08:32:36;100737.69;;;11.40;68.93
5755;BME280;2902;42.130;24.732;2022-12-29T08:35:04;100741.88;;;11.26;69.23
5755;BME280;2902;42.130;24.732;2022-12-29T08:37:31;100728.56;;;11.34;70.30
5755;BME280;2902;42.130;24.732;2022-12-29T08:40:01;100727.16;;;11.62;70.03
5755;BME280;2902;42.130;24.732;2022-12-29T08:42:29;100732.34;;;11.94;68.67
5755;BME280;2902;42.130;24.732;2022-12-29T08:44:56;100736.50;;;12.19;67.12
5755;BME280;2902;42.130;24.732;2022-12-29T08:47:23;100724.91;;;12.35;66.97
5755;BME280;2902;42.130;24.732;2022-12-29T08:49:49;100729.78;;;12.54;65.95
5755;BME280;2902;42.130;24.732;2022-12-29T08:52:16;100724.91;;;12.57;65.70
5755;BME280;2902;42.130;24.732;2022-12-29T08:54:43;100725.94;;;12.56;66.40
5755;BME280;2902;42.130;24.732;2022-12-29T08:57:11;100722.06;;;12.59;66.61
5755;BME280;2902;42.130;24.732;2022-12-29T08:59:38;100710.69;;;12.65;66.04
5755;BME280;2902;42.130;24.732;2022-12-29T09:02:05;100709.44;;;12.75;64.24
5755;BME280;2902;42.130;24.732;2022-12-29T09:04:32;100709.81;;;12.72;65.09
5755;BME280;2902;42.130;24.732;2022-12-29T09:06:58;100698.38;;;12.64;66.02
5755;BME280;2902;42.130;24.732;2022-12-29T09:09:25;100704.41;;;12.80;65.33
5755;BME280;2902;42.130;24.732;2022-12-29T09:11:52;100660.69;;;13.18;78.40
5755;BME280;2902;42.130;24.732;2022-12-29T09:14:20;100685.13;;;14.01;71.97
5755;BME280;2902;42.130;24.732;2022-12-29T09:16:47;100708.53;;;13.99;61.58
5755;BME280;2902;42.130;24.732;2022-12-29T09:19:31;100654.97;;;13.86;76.31
5755;BME280;2902;42.130;24.732;2022-12-29T09:21:57;100699.25;;;14.51;63.88
5755;BME280;2902;42.130;24.732;2022-12-29T09:24:24;100687.28;;;14.47;59.76
5755;BME280;2902;42.130;24.732;2022-12-29T09:26:51;100675.91;;;13.82;60.27
5755;BME280;2902;42.130;24.732;2022-12-29T09:29:17;100677.00;;;13.59;63.83
5755;BME280;2902;42.130;24.732;2022-12-29T09:31:45;100662.56;;;13.68;61.75
5755;BME280;2902;42.130;24.732;2022-12-29T09:34:12;100673.78;;;13.78;60.51
5755;BME280;2902;42.130;24.732;2022-12-29T09:36:39;100659.03;;;13.82;61.17
5755;BME280;2902;42.130;24.732;2022-12-29T09:39:06;100653.00;;;13.94;60.56
5755;BME280;2902;42.130;24.732;2022-12-29T09:41:36;100649.69;;;14.13;60.22
5755;BME280;2902;42.130;24.732;2022-12-29T09:44:10;100645.72;;;14.24;60.28
5755;BME280;2902;42.130;24.732;2022-12-29T09:46:40;100651.13;;;14.30;59.45
5755;BME280;2902;42.130;24.732;2022-12-29T09:49:18;100637.13;;;14.49;59.06
5755;BME280;2902;42.130;24.732;2022-12-29T09:51:50;100643.97;;;14.58;58.60
5755;BME280;2902;42.130;24.732;2022-12-29T09:54:39;100623.28;;;14.67;57.44
5755;BME280;2902;42.130;24.732;2022-12-29T09:57:14;100632.75;;;14.69;57.61
5755;BME280;2902;42.130;24.732;2022-12-29T09:59:43;100620.94;;;14.57;57.72
5755;BME280;2902;42.130;24.732;2022-12-29T10:02:21;100624.53;;;14.43;58.40
5755;BME280;2902;42.130;24.732;2022-12-29T10:04:54;100615.28;;;14.46;57.53
5755;BME280;2902;42.130;24.732;2022-12-29T10:07:30;100612.34;;;14.62;58.30
5755;BME280;2902;42.130;24.732;2022-12-29T10:10:06;100609.59;;;14.83;57.64
5755;BME280;2902;42.130;24.732;2022-12-29T10:12:54;100604.56;;;15.01;56.11
5755;BME280;2902;42.130;24.732;2022-12-29T10:15:35;100596.91;;;14.98;56.58
5755;BME280;2902;42.130;24.732;2022-12-29T10:18:12;100596.50;;;14.94;56.32
5755;BME280;2902;42.130;24.732;2022-12-29T10:20:51;100590.41;;;14.79;57.27
5755;BME280;2902;42.130;24.732;2022-12-29T10:23:27;100586.75;;;14.80;57.26
5755;BME280;2902;42.130;24.732;2022-12-29T10:25:56;100581.78;;;14.77;57.87
5755;BME280;2902;42.130;24.732;2022-12-29T10:28:28;100581.56;;;14.72;57.49
5755;BME280;2902;42.130;24.732;2022-12-29T10:30:56;100574.94;;;14.68;57.37
5755;BME280;2902;42.130;24.732;2022-12-29T10:33:31;100578.38;;;14.62;58.09
5755;BME280;2902;42.130;24.732;2022-12-29T10:36:12;100577.50;;;14.55;58.47
5755;BME280;2902;42.130;24.732;2022-12-29T10:38:45;100573.63;;;14.58;57.63
5755;BME280;2902;42.130;24.732;2022-12-29T10:41:20;100570.66;;;14.46;57.82
5755;BME280;2902;42.130;24.732;2022-12-29T10:43:49;100561.75;;;14.18;58.94
5755;BME280;2902;42.130;24.732;2022-12-29T10:46:19;100556.38;;;13.91;59.78
5755;BME280;2902;42.130;24.732;2022-12-29T10:48:47;100556.38;;;13.91;60.94
5755;BME280;2902;42.130;24.732;2022-12-29T10:51:20;100560.13;;;13.96;59.89
5755;BME280;2902;42.130;24.732;2022-12-29T10:53:50;100539.09;;;13.87;60.07
5755;BME280;2902;42.130;24.732;2022-12-29T10:56:27;100557.19;;;14.12;60.33
5755;BME280;2902;42.130;24.732;2022-12-29T10:58:55;100533.84;;;14.00;59.76
5755;BME280;2902;42.130;24.732;2022-12-29T11:01:25;100545.81;;;14.04;59.77
5755;BME280;2902;42.130;24.732;2022-12-29T11:04:02;100546.72;;;13.90;59.22
5755;BME280;2902;42.130;24.732;2022-12-29T11:06:31;100531.91;;;13.66;60.30
5755;BME280;2902;42.130;24.732;2022-12-29T11:09:02;100524.78;;;13.52;60.68
5755;BME280;2902;42.130;24.732;2022-12-29T11:11:36;100532.16;;;13.50;61.39
5755;BME280;2902;42.130;24.732;2022-12-29T11:14:11;100525.41;;;13.33;61.81
5755;BME280;2902;42.130;24.732;2022-12-29T11:16:38;100526.50;;;13.39;61.67
5755;BME280;2902;42.130;24.732;2022-12-29T11:19:19;100516.78;;;13.52;60.73
5755;BME280;2902;42.130;24.732;2022-12-29T11:21:48;100514.94;;;13.53;61.47
5755;BME280;2902;42.130;24.732;2022-12-29T11:24:23;100515.00;;;13.59;61.15
5755;BME280;2902;42.130;24.732;2022-12-29T11:26:51;100511.19;;;13.68;61.37
5755;BME280;2902;42.130;24.732;2022-12-29T11:29:27;100503.56;;;13.65;60.11
5755;BME280;2902;42.130;24.732;2022-12-29T11:31:55;100509.09;;;13.85;60.62
5755;BME280;2902;42.130;24.732;2022-12-29T11:34:26;100520.31;;;14.01;59.42
5755;BME280;2902;42.130;24.732;2022-12-29T11:37:02;100509.38;;;13.96;59.21
5755;BME280;2902;42.130;24.732;2022-12-29T11:39:34;100510.31;;;13.82;60.14
5755;BME280;2902;42.130;24.732;2022-12-29T11:42:03;100504.00;;;13.90;60.04
5755;BME280;2902;42.130;24.732;2022-12-29T11:44:36;100504.75;;;14.05;59.19
5755;BME280;2902;42.130;24.732;2022-12-29T11:47:04;100506.44;;;14.12;59.20
5755;BME280;2902;42.130;24.732;2022-12-29T11:49:34;100508.34;;;13.97;59.16
5755;BME280;2902;42.130;24.732;2022-12-29T11:52:02;100496.31;;;13.80;59.74
5755;BME280;2902;42.130;24.732;2022-12-29T11:54:31;100497.84;;;13.68;60.27
5755;BME280;2902;42.130;24.732;2022-12-29T11:57:09;100486.91;;;13.63;60.45
5755;BME280;2902;42.130;24.732;2022-12-29T11:59:41;100484.34;;;13.76;59.60
5755;BME280;2902;42.130;24.732;2022-12-29T12:05:07;100483.75;;;14.02;59.73
5755;BME280;2902;42.130;24.732;2022-12-29T12:07:40;100480.97;;;14.16;59.24
5755;BME280;2902;42.130;24.732;2022-12-29T12:10:16;100484.25;;;14.18;58.88
5755;BME280;2902;42.130;24.732;2022-12-29T12:12:48;100483.41;;;14.11;58.63
5755;BME280;2902;42.130;24.732;2022-12-29T12:15:20;100474.69;;;14.03;59.05
5755;BME280;2902;42.130;24.732;2022-12-29T12:17:51;100470.19;;;14.03;58.66
5755;BME280;2902;42.130;24.732;2022-12-29T12:20:22;100470.34;;;13.95;59.15
5755;BME280;2902;42.130;24.732;2022-12-29T12:22:59;100468.97;;;14.06;59.45
5755;BME280;2902;42.130;24.732;2022-12-29T12:25:37;100461.59;;;14.08;58.69
5755;BME280;2902;42.130;24.732;2022-12-29T12:28:11;100459.56;;;14.10;58.93
5755;BME280;2902;42.130;24.732;2022-12-29T12:30:42;100455.03;;;14.10;58.59
5755;BME280;2902;42.130;24.732;2022-12-29T12:33:16;100453.38;;;14.09;58.51
5755;BME280;2902;42.130;24.732;2022-12-29T12:35:49;100454.41;;;14.08;58.58
5755;BME280;2902;42.130;24.732;2022-12-29T12:38:30;100458.34;;;14.12;58.45
5755;BME280;2902;42.130;24.732;2022-12-29T12:41:07;100451.97;;;14.13;58.72
5755;BME280;2902;42.130;24.732;2022-12-29T12:43:46;100453.38;;;14.09;59.29
5755;BME280;2902;42.130;24.732;2022-12-29T12:46:24;100448.00;;;14.03;59.19
5755;BME280;2902;42.130;24.732;2022-12-29T12:49:04;100447.19;;;14.02;59.01
5755;BME280;2902;42.130;24.732;2022-12-29T12:51:47;100447.06;;;13.89;59.39
5755;BME280;2902;42.130;24.732;2022-12-29T12:54:33;100455.22;;;13.81;59.66
5755;BME280;2902;42.130;24.732;2022-12-29T12:57:11;100450.66;;;13.75;60.68
5755;BME280;2902;42.130;24.732;2022-12-29T12:59:49;100435.41;;;13.69;60.30
5755;BME280;2902;42.130;24.732;2022-12-29T13:02:31;100452.34;;;13.83;60.03
5755;BME280;2902;42.130;24.732;2022-12-29T13:05:10;100460.31;;;13.76;59.58
5755;BME280;2902;42.130;24.732;2022-12-29T13:07:50;100452.63;;;13.67;60.76
5755;BME280;2902;42.130;24.732;2022-12-29T13:10:32;100454.09;;;13.69;60.11
5755;BME280;2902;42.130;24.732;2022-12-29T13:13:24;100446.03;;;13.63;60.03
5755;BME280;2902;42.130;24.732;2022-12-29T13:16:02;100456.91;;;13.61;60.64
5755;BME280;2902;42.130;24.732;2022-12-29T13:18:37;100457.72;;;13.62;60.77
5755;BME280;2902;42.130;24.732;2022-12-29T13:21:16;100455.91;;;13.62;60.60
5755;BME280;2902;42.130;24.732;2022-12-29T13:23:54;100454.16;;;13.55;61.06
5755;BME280;2902;42.130;24.732;2022-12-29T13:26:27;100449.97;;;13.46;61.45
5755;BME280;2902;42.130;24.732;2022-12-29T13:28:59;100449.91;;;13.39;61.91
5755;BME280;2902;42.130;24.732;2022-12-29T13:31:35;100444.22;;;13.42;61.25
5755;BME280;2902;42.130;24.732;2022-12-29T13:34:11;100454.88;;;13.42;61.48